LFBZ Airport Information

Runway Information
Runway 09 Length 7382 ft width 148 ft
Elevation 242 ft Threshold 656 ft Heading 89
Runway 27 Length 7382 ft Width 148 ft
Elevation 219 ft Threshold ft Heading 269
Airport Frequencies
Type APP Name BIARRITZ A Frequency 125.6 MHZ
Type ATIS Name ATIS Frequency 128.225 MHZ
Type GND Name BIARRITZ G Frequency 121.95 MHZ
Type TWR Name BIARRITZ T Frequency 118.7 MHZ
Airport Navaids
Type VOR-DME Name Biarritz Frequency 114150 KHZ
Type NDB Name Biarritz Frequency 341 KHZ
Airport Weather Information & NOTAM
ADDS - METARS form results

(1144 UTC 05 February 2023)
Data provider http://aviationweather.gov/metar/data/
 
METAR text: LFBZ 051130Z AUTO 06003KT 030V090 9999 OVC041 08/05 Q1040 NOSIG
Conditions at: LFBZ (BIARRITZ/ANGLET , FR) observed 1130 UTC 05 February 2023
Temperature: 8.0°C (46°F)
Dewpoint: 5.0°C (41°F) [RH = 81%]
Pressure (altimeter): 30.71 inches Hg (1040.0 mb)
Winds: from the ENE (60 degrees) at 3 MPH (3 knots; 1.5 m/s)
Visibility: 6 or more miles (10+ km)
Ceiling: 4100 feet AGL
Clouds: overcast cloud deck at 4100 feet AGL
Weather: no significant weather observed at this time

METAR text: LFBZ 051100Z AUTO 07003KT 9999 OVC040 08/05 Q1040 NOSIG
Conditions at: LFBZ (BIARRITZ/ANGLET , FR) observed 1100 UTC 05 February 2023
Temperature: 8.0°C (46°F)
Dewpoint: 5.0°C (41°F) [RH = 81%]
Pressure (altimeter): 30.71 inches Hg (1040.0 mb)
Winds: from the ENE (70 degrees) at 3 MPH (3 knots; 1.5 m/s)
Visibility: 6 or more miles (10+ km)
Ceiling: 4000 feet AGL
Clouds: overcast cloud deck at 4000 feet AGL
Weather: no significant weather observed at this time

Forecast for: LFBZ (BIARRITZ/ANGLET , FR)
Text: TAF LFBZ 051100Z 0512/0612 07010KT 9999 BKN030
Forecast period: 1200 UTC 05 February 2023 to 1200 UTC 06 February 2023
Forecast type: FROM: standard forecast or significant change
Winds: from the ENE (70 degrees) at 12 MPH (10 knots; 5.1 m/s)
Visibility: 6 or more miles (10+ km)
Ceiling: 3000 feet AGL
Clouds: broken clouds at 3000 feet AGL
Weather: no significant weather forecast for this period
Text: PROB30
Forecast period: 0800 to 1100 UTC 06 February 2023
Forecast type: TEMPORARY: The following changes expected for less than half the time period
Visibility: missing
Ceiling: 300 feet AGL
Clouds: broken clouds at 300 feet AGL
Weather: no significant weather forecast for this period